createdAt,value
2018-10-03T00:00:51.139Z,13.60
2018-10-03T00:01:51.064Z,10.00
2018-10-03T00:02:51.076Z,12.90
2018-10-03T00:03:51.073Z,15.30
2018-10-03T00:04:51.062Z,16.20
2018-10-03T00:05:51.020Z,13.70
2018-10-03T00:06:51.038Z,14.00
2018-10-03T00:07:51.028Z,11.30
2018-10-03T00:08:50.989Z,13.80
2018-10-03T00:09:50.976Z,12.20
2018-10-03T00:10:50.963Z,13.50
2018-10-03T00:11:50.963Z,16.20
2018-10-03T00:12:50.983Z,14.00
2018-10-03T00:13:50.938Z,16.30
2018-10-03T00:14:50.919Z,16.20
2018-10-03T00:15:50.906Z,13.60
2018-10-03T00:16:50.893Z,15.50
2018-10-03T00:17:50.927Z,16.20
2018-10-03T00:18:50.895Z,15.40
2018-10-03T00:19:50.865Z,16.60
2018-10-03T00:20:50.855Z,13.10
2018-10-03T00:21:50.867Z,14.50
2018-10-03T00:22:50.836Z,11.30
2018-10-03T00:23:50.837Z,14.20
2018-10-03T00:24:50.814Z,12.40
2018-10-03T00:25:50.797Z,12.80
2018-10-03T00:26:50.787Z,16.30
2018-10-03T00:27:50.790Z,11.10
2018-10-03T00:28:50.790Z,13.40
2018-10-03T00:29:50.745Z,12.90
2018-10-03T00:30:50.749Z,16.40
2018-10-03T00:31:50.725Z,12.90
2018-10-03T00:32:50.714Z,12.80
2018-10-03T00:33:50.737Z,16.90
2018-10-03T00:34:50.689Z,13.90
2018-10-03T00:35:50.700Z,11.90
2018-10-03T00:36:50.693Z,13.50
2018-10-03T00:37:50.662Z,13.70
2018-10-03T00:38:50.657Z,13.20
2018-10-03T00:39:50.656Z,13.40
2018-10-03T00:40:50.621Z,12.50
2018-10-03T00:41:50.628Z,14.60
2018-10-03T00:42:50.602Z,16.20
2018-10-03T00:43:50.593Z,13.20
2018-10-03T00:44:50.598Z,13.90
2018-10-03T00:45:50.596Z,14.10
2018-10-03T00:46:50.558Z,15.60
2018-10-03T00:47:50.549Z,12.20
2018-10-03T00:48:50.531Z,11.40
2018-10-03T00:49:50.528Z,18.20
2018-10-03T00:50:50.544Z,17.90
2018-10-03T00:51:50.501Z,12.50
2018-10-03T00:52:50.496Z,11.70
2018-10-03T00:53:50.476Z,15.80
2018-10-03T00:54:50.472Z,15.90
2018-10-03T00:55:50.503Z,12.70
2018-10-03T00:56:50.447Z,13.40
2018-10-03T00:57:50.451Z,17.60
2018-10-03T00:58:50.441Z,13.90
2018-10-03T00:59:50.423Z,12.90
2018-10-03T01:00:50.414Z,9.70
2018-10-03T01:01:50.397Z,9.90
2018-10-03T01:02:50.373Z,16.30
2018-10-03T01:03:50.386Z,14.60
2018-10-03T01:04:57.388Z,12.50
2018-10-03T01:05:50.360Z,12.30
2018-10-03T01:06:50.335Z,12.60
2018-10-03T01:07:50.343Z,15.00
2018-10-03T01:08:50.312Z,13.60
2018-10-03T01:09:50.295Z,14.20
2018-10-03T01:10:50.302Z,12.10
2018-10-03T01:11:50.274Z,10.40
2018-10-03T01:12:50.288Z,14.00
2018-10-03T01:13:50.269Z,13.50
2018-10-03T01:14:50.254Z,11.30
2018-10-03T01:15:50.228Z,12.30
2018-10-03T01:16:50.221Z,12.50
2018-10-03T01:17:50.231Z,9.80
2018-10-03T01:18:50.205Z,13.30
2018-10-03T01:19:50.183Z,12.60
2018-10-03T01:20:50.173Z,11.70
2018-10-03T01:21:50.184Z,13.70
2018-10-03T01:22:50.154Z,13.50
2018-10-03T01:23:50.146Z,16.70
2018-10-03T01:24:50.142Z,13.20
2018-10-03T01:25:50.118Z,14.70
2018-10-03T01:26:50.129Z,14.40
2018-10-03T01:27:50.095Z,12.30
2018-10-03T01:28:50.096Z,13.30
2018-10-03T01:29:50.096Z,12.00
2018-10-03T01:30:50.058Z,13.80
2018-10-03T01:31:50.047Z,14.10
2018-10-03T01:32:50.037Z,14.50
2018-10-03T01:33:50.027Z,13.90
2018-10-03T01:34:50.071Z,11.70
2018-10-03T01:35:50.010Z,11.50
2018-10-03T01:36:49.996Z,14.70
2018-10-03T01:37:49.980Z,11.60
2018-10-03T01:38:49.967Z,14.80
2018-10-03T01:39:49.983Z,13.10
2018-10-03T01:40:49.951Z,12.40
2018-10-03T01:41:49.946Z,14.90
2018-10-03T01:42:49.929Z,11.80
2018-10-03T01:43:49.933Z,11.00
2018-10-03T01:44:49.900Z,16.80
2018-10-03T01:45:49.895Z,16.10
2018-10-03T01:46:49.888Z,13.40
2018-10-03T01:47:49.890Z,10.30
2018-10-03T01:48:49.897Z,16.80
2018-10-03T01:49:49.849Z,8.30
2018-10-03T01:50:49.832Z,13.70
2018-10-03T01:51:49.823Z,15.40
2018-10-03T01:52:49.839Z,17.80
2018-10-03T01:53:49.798Z,12.80
2018-10-03T01:54:49.786Z,12.10
2018-10-03T01:55:49.800Z,11.50
2018-10-03T01:56:49.772Z,10.40
2018-10-03T01:57:49.759Z,10.30
2018-10-03T01:58:49.745Z,14.50
2018-10-03T01:59:49.756Z,11.40
2018-10-03T02:00:49.721Z,13.50
2018-10-03T02:01:49.708Z,11.80
2018-10-03T02:02:49.697Z,10.50
2018-10-03T02:03:49.690Z,11.90
2018-10-03T02:04:49.701Z,11.30
2018-10-03T02:05:49.665Z,12.90
2018-10-03T02:06:49.690Z,13.40
2018-10-03T02:07:49.640Z,12.80
2018-10-03T02:08:49.638Z,13.30
2018-10-03T02:09:49.625Z,18.40
2018-10-03T02:10:49.619Z,11.90
2018-10-03T02:11:49.629Z,10.80
2018-10-03T02:12:49.584Z,14.90
2018-10-03T02:13:49.575Z,14.20
2018-10-03T02:14:49.604Z,11.40
2018-10-03T02:15:49.560Z,11.00
2018-10-03T02:16:49.577Z,11.10
2018-10-03T02:17:49.528Z,11.50
2018-10-03T02:18:49.519Z,11.50
2018-10-03T02:19:49.533Z,15.80
2018-10-03T02:20:49.496Z,12.60
2018-10-03T02:21:49.512Z,10.70
2018-10-03T02:22:49.509Z,10.40
2018-10-03T02:23:49.461Z,13.80
2018-10-03T02:24:49.450Z,9.40
2018-10-03T02:25:49.441Z,11.80
2018-10-03T02:26:49.434Z,12.10
2018-10-03T02:27:49.439Z,12.40
2018-10-03T02:28:49.435Z,12.20
2018-10-03T02:29:49.396Z,10.60
2018-10-03T02:30:49.407Z,14.50
2018-10-03T02:31:49.381Z,9.20
2018-10-03T02:32:49.365Z,13.40
2018-10-03T02:33:49.373Z,13.10
2018-10-03T02:34:49.339Z,11.50
2018-10-03T02:35:49.328Z,13.90
2018-10-03T02:36:49.354Z,10.90
2018-10-03T02:37:49.303Z,11.40
2018-10-03T02:38:49.294Z,10.00
2018-10-03T02:39:49.284Z,14.20
2018-10-03T02:40:49.275Z,11.00
2018-10-03T02:41:49.290Z,11.60
2018-10-03T02:42:49.248Z,10.80
2018-10-03T02:43:49.240Z,12.80
2018-10-03T02:44:49.225Z,11.90
2018-10-03T02:45:49.215Z,9.30
2018-10-03T02:46:49.253Z,13.30
2018-10-03T02:47:49.192Z,12.50
2018-10-03T02:48:49.185Z,11.80
2018-10-03T02:49:49.174Z,9.70
2018-10-03T02:50:49.164Z,10.20
2018-10-03T02:51:49.188Z,10.90
2018-10-03T02:52:49.136Z,12.70
2018-10-03T02:53:49.131Z,12.80
2018-10-03T02:54:49.132Z,14.70
2018-10-03T02:55:49.108Z,9.80
2018-10-03T02:56:49.121Z,12.40
2018-10-03T02:57:49.081Z,12.90
2018-10-03T02:58:49.066Z,9.00
2018-10-03T02:59:49.061Z,9.40
2018-10-03T03:00:49.045Z,9.60
2018-10-03T03:01:49.177Z,9.60
2018-10-03T03:02:49.023Z,12.70
2018-10-03T03:03:49.015Z,10.40
2018-10-03T03:04:49.003Z,9.50
2018-10-03T03:05:49.002Z,14.80
2018-10-03T03:06:49.006Z,13.20
2018-10-03T03:07:48.988Z,14.40
2018-10-03T03:08:48.971Z,12.40
2018-10-03T03:09:48.952Z,11.50
2018-10-03T03:10:48.936Z,11.30
2018-10-03T03:11:48.923Z,12.20
2018-10-03T03:12:48.962Z,13.10
2018-10-03T03:13:48.922Z,14.50
2018-10-03T03:14:48.894Z,11.80
2018-10-03T03:15:48.884Z,10.40
2018-10-03T03:16:48.869Z,12.20
2018-10-03T03:17:48.891Z,12.30
2018-10-03T03:18:48.854Z,13.50
2018-10-03T03:19:48.833Z,14.70
2018-10-03T03:20:48.823Z,12.10
2018-10-03T03:21:48.816Z,12.60
2018-10-03T03:22:48.838Z,11.90
2018-10-03T03:23:48.786Z,14.50
2018-10-03T03:24:48.784Z,16.00
2018-10-03T03:25:48.763Z,14.10
2018-10-03T03:26:48.761Z,14.10
2018-10-03T03:27:48.775Z,12.30
2018-10-03T03:28:48.733Z,14.00
2018-10-03T03:29:48.728Z,13.70
2018-10-03T03:30:48.725Z,16.40
2018-10-03T03:31:48.699Z,13.90
2018-10-03T03:32:48.709Z,12.40
2018-10-03T03:33:48.699Z,12.10
2018-10-03T03:34:48.663Z,13.70
2018-10-03T03:35:48.657Z,13.00
2018-10-03T03:36:48.650Z,14.20
2018-10-03T03:37:48.629Z,10.60
2018-10-03T03:38:48.640Z,12.30
2018-10-03T03:39:48.608Z,11.30
2018-10-03T03:40:48.618Z,14.60
2018-10-03T03:41:48.590Z,11.50
2018-10-03T03:42:48.618Z,10.40
2018-10-03T03:43:48.562Z,9.90
2018-10-03T03:44:48.548Z,13.30
2018-10-03T03:45:48.570Z,13.70
2018-10-03T03:46:48.530Z,13.50
2018-10-03T03:47:48.527Z,12.10
2018-10-03T03:48:48.507Z,12.90
2018-10-03T03:49:48.544Z,11.80
2018-10-03T03:50:48.485Z,13.50
2018-10-03T03:51:48.474Z,11.20
2018-10-03T03:52:48.462Z,12.20
2018-10-03T03:53:48.466Z,12.80
2018-10-03T03:54:48.466Z,14.70
2018-10-03T03:55:48.427Z,10.40
2018-10-03T03:56:48.415Z,12.50
2018-10-03T03:57:48.420Z,11.60
2018-10-03T03:58:48.401Z,15.10
2018-10-03T03:59:48.429Z,12.90
2018-10-03T04:00:48.380Z,12.20
2018-10-03T04:01:48.361Z,14.50
2018-10-03T04:02:48.346Z,16.40
2018-10-03T04:03:48.339Z,10.70
2018-10-03T04:04:48.369Z,13.10
2018-10-03T04:05:48.321Z,12.90
2018-10-03T04:06:48.310Z,13.00
2018-10-03T04:07:48.293Z,12.10
2018-10-03T04:08:48.279Z,14.10
2018-10-03T04:09:48.309Z,14.60
2018-10-03T04:10:48.267Z,11.50
2018-10-03T04:11:48.257Z,12.60
2018-10-03T04:12:48.246Z,12.10
2018-10-03T04:13:48.223Z,12.00
2018-10-03T04:14:48.237Z,15.10
2018-10-03T04:15:48.231Z,12.90
2018-10-03T04:16:48.199Z,12.90
2018-10-03T04:17:48.180Z,12.40
2018-10-03T04:18:48.167Z,10.70
2018-10-03T04:19:48.157Z,16.90
2018-10-03T04:20:48.168Z,14.50
2018-10-03T04:21:48.139Z,11.30
2018-10-03T04:22:48.142Z,14.30
2018-10-03T04:23:48.111Z,14.10
2018-10-03T04:24:48.099Z,10.40
2018-10-03T04:25:48.119Z,10.80
2018-10-03T04:26:48.078Z,12.40
2018-10-03T04:27:48.075Z,12.30
2018-10-03T04:28:48.084Z,12.00
2018-10-03T04:29:48.043Z,16.10
2018-10-03T04:30:48.061Z,15.30
2018-10-03T04:31:48.034Z,17.20
2018-10-03T04:32:48.039Z,12.30
2018-10-03T04:33:48.004Z,12.90
2018-10-03T04:34:48.015Z,11.20
2018-10-03T04:35:48.057Z,10.00
2018-10-03T04:36:47.970Z,8.90
2018-10-03T04:37:47.977Z,11.70
2018-10-03T04:38:47.945Z,16.50
2018-10-03T04:39:47.943Z,11.70
2018-10-03T04:40:47.948Z,13.10
2018-10-03T04:41:47.908Z,13.50
2018-10-03T04:42:47.902Z,12.90
2018-10-03T04:43:47.890Z,16.00
2018-10-03T04:44:47.882Z,12.80
2018-10-03T04:45:47.888Z,11.70
2018-10-03T04:46:47.850Z,9.40
2018-10-03T04:47:47.840Z,14.10
2018-10-03T04:48:47.858Z,12.10
2018-10-03T04:49:47.842Z,11.90
2018-10-03T04:50:47.836Z,17.20
2018-10-03T04:51:47.800Z,14.20
2018-10-03T04:52:47.788Z,10.90
2018-10-03T04:53:47.771Z,15.00
2018-10-03T04:54:47.763Z,17.20
2018-10-03T04:55:47.778Z,15.50
2018-10-03T04:56:47.760Z,12.20
2018-10-03T04:57:47.728Z,12.90
2018-10-03T04:58:47.718Z,13.20
2018-10-03T04:59:47.705Z,14.20
2018-10-03T05:00:47.700Z,14.80
2018-10-03T05:01:47.706Z,13.10
2018-10-03T05:02:47.699Z,12.30
2018-10-03T05:03:47.660Z,15.30
2018-10-03T05:04:47.650Z,13.20
2018-10-03T05:05:47.639Z,15.60
2018-10-03T05:06:47.630Z,14.30
2018-10-03T05:07:47.642Z,12.90
2018-10-03T05:08:47.604Z,18.80
2018-10-03T05:09:47.594Z,14.80
2018-10-03T05:10:47.582Z,11.90
2018-10-03T05:11:47.572Z,13.60
2018-10-03T05:12:47.591Z,13.90
2018-10-03T05:13:47.562Z,17.10
2018-10-03T05:14:47.536Z,12.60
2018-10-03T05:15:55.309Z,13.30
2018-10-03T05:16:47.523Z,16.60
2018-10-03T05:17:47.526Z,14.90
2018-10-03T05:18:47.492Z,15.30
2018-10-03T05:19:47.489Z,14.10
2018-10-03T05:20:47.492Z,18.40
2018-10-03T05:21:47.462Z,13.00
2018-10-03T05:22:47.447Z,13.40
2018-10-03T05:23:47.440Z,13.80
2018-10-03T05:24:47.447Z,12.80
2018-10-03T05:25:47.413Z,15.30
2018-10-03T05:26:47.408Z,12.60
2018-10-03T05:27:47.452Z,17.70
2018-10-03T05:28:47.402Z,14.50
2018-10-03T05:29:47.369Z,13.80
2018-10-03T05:30:47.365Z,18.20
2018-10-03T05:31:47.345Z,15.60
2018-10-03T05:32:47.334Z,16.00
2018-10-03T05:33:47.348Z,14.70
2018-10-03T05:34:47.311Z,17.80
2018-10-03T05:35:47.299Z,16.70
2018-10-03T05:36:47.327Z,15.40
2018-10-03T05:37:47.278Z,18.30
2018-10-03T05:38:47.268Z,14.10
2018-10-03T05:39:47.340Z,9.60
2018-10-03T05:40:47.258Z,12.90
2018-10-03T05:41:47.256Z,15.20
2018-10-03T05:42:47.228Z,14.70
2018-10-03T05:43:47.239Z,12.50
2018-10-03T05:44:47.200Z,16.60
2018-10-03T05:45:47.186Z,10.60
2018-10-03T05:46:47.184Z,15.60
2018-10-03T05:47:47.193Z,16.50
2018-10-03T05:48:47.230Z,13.90
2018-10-03T05:49:47.142Z,15.30
2018-10-03T05:50:47.133Z,18.20
2018-10-03T05:51:47.119Z,14.20
2018-10-03T05:52:47.142Z,17.80
2018-10-03T05:53:55.341Z,13.30
2018-10-03T05:54:47.140Z,11.20
2018-10-03T05:55:47.075Z,15.10
2018-10-03T05:56:47.065Z,14.00
2018-10-03T05:57:47.073Z,14.70
2018-10-03T05:58:47.040Z,15.70
2018-10-03T05:59:47.035Z,14.10
2018-10-03T06:00:47.018Z,12.00
2018-10-03T06:01:47.005Z,14.40
2018-10-03T06:02:47.048Z,12.00
2018-10-03T06:03:46.988Z,14.20
2018-10-03T06:04:46.977Z,11.90
2018-10-03T06:05:46.971Z,14.70
2018-10-03T06:06:46.957Z,14.40
2018-10-03T06:07:46.969Z,16.90
2018-10-03T06:08:46.934Z,17.70
2018-10-03T06:09:46.932Z,14.60
2018-10-03T06:10:46.904Z,13.60
2018-10-03T06:11:46.892Z,13.50
2018-10-03T06:12:46.927Z,12.80
2018-10-03T06:13:46.883Z,14.10
2018-10-03T06:14:46.886Z,13.30
2018-10-03T06:15:46.847Z,18.40
2018-10-03T06:16:46.842Z,10.20
2018-10-03T06:17:46.858Z,12.40
2018-10-03T06:18:54.991Z,15.80
2018-10-03T06:19:46.802Z,17.00
2018-10-03T06:20:46.789Z,12.90
2018-10-03T06:21:46.781Z,12.80
2018-10-03T06:22:46.805Z,14.00
2018-10-03T06:23:46.758Z,12.80
2018-10-03T06:24:46.745Z,12.70
2018-10-03T06:25:46.737Z,16.80
2018-10-03T06:26:46.721Z,11.30
2018-10-03T06:27:46.846Z,13.30
2018-10-03T06:28:46.698Z,15.00
2018-10-03T06:29:46.721Z,12.10
2018-10-03T06:30:46.685Z,13.60
2018-10-03T06:31:46.692Z,14.00
2018-10-03T06:32:46.657Z,15.60
2018-10-03T06:33:46.654Z,10.80
2018-10-03T06:34:46.667Z,15.40
2018-10-03T06:35:46.633Z,15.10
2018-10-03T06:36:46.608Z,13.10
2018-10-03T06:37:46.605Z,12.90
2018-10-03T06:38:46.586Z,12.90
2018-10-03T06:39:46.599Z,10.70
2018-10-03T06:40:46.564Z,14.80
2018-10-03T06:41:46.599Z,12.10
2018-10-03T06:42:46.543Z,11.20
2018-10-03T06:43:46.529Z,12.30
2018-10-03T06:44:46.524Z,17.30
2018-10-03T06:45:46.652Z,17.60
2018-10-03T06:46:46.577Z,13.70
2018-10-03T06:47:46.483Z,12.30
2018-10-03T06:48:46.491Z,14.80
2018-10-03T06:49:46.485Z,13.30
2018-10-03T06:50:46.505Z,14.50
2018-10-03T06:51:46.436Z,14.10
2018-10-03T06:52:46.426Z,11.90
2018-10-03T06:53:46.418Z,10.80
2018-10-03T06:54:46.427Z,14.00
2018-10-03T06:55:46.431Z,11.70
2018-10-03T06:56:46.461Z,16.80
2018-10-03T06:57:46.371Z,12.30
2018-10-03T06:58:46.364Z,13.30
2018-10-03T06:59:46.357Z,13.00
2018-10-03T07:00:46.361Z,11.30
2018-10-03T07:01:46.329Z,14.80
2018-10-03T07:02:46.325Z,15.30
2018-10-03T07:03:46.306Z,14.20
2018-10-03T07:04:46.318Z,15.30
2018-10-03T07:05:46.307Z,14.00
2018-10-03T07:06:46.266Z,13.80
2018-10-03T07:07:46.256Z,14.40
2018-10-03T07:08:46.247Z,11.50
2018-10-03T07:09:46.256Z,14.60
2018-10-03T07:10:46.224Z,14.50
2018-10-03T07:11:46.242Z,14.80
2018-10-03T07:12:46.203Z,12.50
2018-10-03T07:13:46.192Z,17.00
2018-10-03T07:14:46.176Z,13.90
2018-10-03T07:15:46.166Z,15.00
2018-10-03T07:16:46.203Z,13.20
2018-10-03T07:17:46.168Z,15.80
2018-10-03T07:18:46.130Z,15.50
2018-10-03T07:19:46.121Z,11.10
2018-10-03T07:20:46.133Z,14.50
2018-10-03T07:21:46.103Z,12.00
2018-10-03T07:22:46.128Z,19.50
2018-10-03T07:23:46.076Z,11.60
2018-10-03T07:24:46.076Z,11.60
2018-10-03T07:25:46.057Z,15.20
2018-10-03T07:26:46.043Z,15.50
2018-10-03T07:27:46.098Z,16.60
2018-10-03T07:28:46.097Z,13.20
2018-10-03T07:29:46.006Z,10.80
2018-10-03T07:30:45.997Z,17.20
2018-10-03T07:31:45.991Z,14.60
2018-10-03T07:32:46.070Z,16.40
2018-10-03T07:33:45.962Z,16.00
2018-10-03T07:34:45.950Z,14.20
2018-10-03T07:35:45.939Z,13.00
2018-10-03T07:36:45.927Z,11.90
2018-10-03T07:37:45.938Z,14.20
2018-10-03T07:38:45.998Z,14.30
2018-10-03T07:39:45.892Z,12.60
2018-10-03T07:40:45.884Z,18.40
2018-10-03T07:41:45.871Z,10.30
2018-10-03T07:42:45.863Z,14.70
2018-10-03T07:43:45.880Z,14.50
2018-10-03T07:44:45.843Z,11.20
2018-10-03T07:45:45.827Z,19.20
2018-10-03T07:46:45.817Z,13.10
2018-10-03T07:47:45.806Z,11.50
2018-10-03T07:48:45.826Z,13.90
2018-10-03T07:49:45.784Z,13.00
2018-10-03T07:50:45.801Z,13.20
2018-10-03T07:51:45.759Z,12.80
2018-10-03T07:52:45.748Z,19.60
2018-10-03T07:53:45.762Z,15.00
2018-10-03T07:54:45.726Z,15.80
2018-10-03T07:55:53.923Z,19.70
2018-10-03T07:56:45.703Z,13.20
2018-10-03T07:57:45.693Z,13.60
2018-10-03T07:58:45.725Z,15.80
2018-10-03T07:59:45.673Z,16.60
2018-10-03T08:00:45.662Z,11.40
2018-10-03T08:01:45.646Z,12.80
2018-10-03T08:02:45.635Z,14.10
2018-10-03T08:03:45.656Z,10.90
2018-10-03T08:04:45.629Z,11.90
2018-10-03T08:05:45.598Z,11.20
2018-10-03T08:06:45.592Z,11.70
2018-10-03T08:07:45.577Z,11.70
2018-10-03T08:08:55.434Z,15.70
2018-10-03T08:09:45.556Z,11.30
2018-10-03T08:10:45.544Z,11.50
2018-10-03T08:11:45.532Z,13.30
2018-10-03T08:12:45.542Z,12.20
2018-10-03T08:13:45.509Z,12.20
2018-10-03T08:14:45.495Z,10.90
2018-10-03T08:15:45.484Z,11.30
2018-10-03T08:16:45.474Z,15.20
2018-10-03T08:17:45.493Z,16.10
2018-10-03T08:18:45.457Z,12.70
2018-10-03T08:19:45.438Z,11.20
2018-10-03T08:20:45.437Z,12.40
2018-10-03T08:21:45.416Z,13.90
2018-10-03T08:22:45.428Z,12.30
2018-10-03T08:23:45.391Z,10.80
2018-10-03T08:24:45.404Z,10.20
2018-10-03T08:25:45.367Z,14.90
2018-10-03T08:26:45.360Z,15.90
2018-10-03T08:27:45.347Z,10.80
2018-10-03T08:28:45.363Z,9.70
2018-10-03T08:29:45.347Z,8.00
2018-10-03T08:30:45.313Z,10.50
2018-10-03T08:31:45.300Z,8.80
2018-10-03T08:32:45.541Z,12.30
2018-10-03T08:33:45.284Z,12.40
2018-10-03T08:34:45.269Z,11.80
2018-10-03T08:35:45.256Z,12.40
2018-10-03T08:36:45.267Z,13.60
2018-10-03T08:37:45.236Z,10.70
2018-10-03T08:38:45.315Z,13.00
2018-10-03T08:39:45.209Z,9.90
2018-10-03T08:40:45.228Z,8.60
2018-10-03T08:41:45.191Z,14.10
2018-10-03T08:42:45.176Z,10.80
2018-10-03T08:43:45.164Z,13.80
2018-10-03T08:44:45.193Z,11.10
2018-10-03T08:45:45.142Z,10.50
2018-10-03T08:46:45.131Z,9.90
2018-10-03T08:47:45.121Z,13.70
2018-10-03T08:48:45.108Z,9.90
2018-10-03T08:49:45.122Z,8.00
2018-10-03T08:50:45.110Z,12.20
2018-10-03T08:51:45.106Z,10.90
2018-10-03T08:52:45.065Z,11.00
2018-10-03T08:53:45.055Z,11.80
2018-10-03T08:54:45.041Z,10.60
2018-10-03T08:55:45.053Z,13.30
2018-10-03T08:56:45.024Z,6.80
2018-10-03T08:57:45.007Z,13.40
2018-10-03T08:58:45.026Z,10.90
2018-10-03T08:59:44.993Z,10.80
2018-10-03T09:00:44.977Z,13.80
2018-10-03T09:01:44.986Z,10.70
2018-10-03T09:02:44.951Z,10.90
2018-10-03T09:03:44.941Z,9.70
2018-10-03T09:04:44.931Z,15.70
2018-10-03T09:05:44.918Z,10.00
2018-10-03T09:06:44.937Z,11.40
2018-10-03T09:07:44.893Z,9.80
2018-10-03T09:08:44.882Z,10.10
2018-10-03T09:09:44.871Z,9.40
2018-10-03T09:10:44.895Z,8.90
2018-10-03T09:11:44.960Z,9.20
2018-10-03T09:12:44.864Z,9.10
2018-10-03T09:13:44.829Z,9.10
2018-10-03T09:14:44.816Z,9.60
2018-10-03T09:15:44.802Z,9.00
2018-10-03T09:16:44.798Z,11.70
2018-10-03T09:17:44.812Z,7.00
2018-10-03T09:18:44.769Z,9.00
2018-10-03T09:19:44.758Z,11.00
2018-10-03T09:20:44.750Z,11.30
2018-10-03T09:21:44.819Z,8.90
2018-10-03T09:22:44.752Z,9.90
2018-10-03T09:23:44.717Z,8.40
2018-10-03T09:24:44.704Z,10.50
2018-10-03T09:25:44.700Z,8.10
2018-10-03T09:26:44.713Z,8.10
2018-10-03T09:27:44.672Z,6.00
2018-10-03T09:28:44.663Z,8.30
2018-10-03T09:29:44.646Z,7.20
2018-10-03T09:30:44.634Z,9.50
2018-10-03T09:31:44.659Z,6.90
2018-10-03T09:32:44.618Z,8.00
2018-10-03T09:33:44.600Z,8.20
2018-10-03T09:34:44.588Z,6.50
2018-10-03T09:35:44.576Z,6.80
2018-10-03T09:36:44.589Z,9.50
2018-10-03T09:37:44.555Z,10.80
2018-10-03T09:38:44.566Z,10.90
2018-10-03T09:39:44.533Z,8.20
2018-10-03T09:40:44.523Z,7.30
2018-10-03T09:41:44.510Z,9.40
2018-10-03T09:42:44.549Z,7.00
2018-10-03T09:43:44.518Z,9.80
2018-10-03T09:44:44.475Z,9.10
2018-10-03T09:45:44.464Z,8.40
2018-10-03T09:46:44.453Z,8.20
2018-10-03T09:47:44.479Z,7.50
2018-10-03T09:48:44.430Z,6.10
2018-10-03T09:49:44.424Z,7.90
2018-10-03T09:50:44.410Z,5.40
2018-10-03T09:51:44.404Z,9.40
2018-10-03T09:52:44.414Z,7.40
2018-10-03T09:53:44.374Z,8.10
2018-10-03T09:54:44.387Z,8.00
2018-10-03T09:55:44.352Z,8.00
2018-10-03T09:56:44.341Z,9.30
2018-10-03T09:57:44.357Z,9.10
2018-10-03T09:58:44.316Z,8.30
2018-10-03T09:59:44.306Z,7.50
2018-10-03T10:00:44.379Z,7.20
2018-10-03T10:01:44.289Z,7.30
2018-10-03T10:02:44.272Z,9.70
2018-10-03T10:03:44.263Z,7.20
2018-10-03T10:04:44.273Z,7.70
2018-10-03T10:05:44.241Z,7.00
2018-10-03T10:06:44.230Z,8.50
2018-10-03T10:07:44.215Z,6.40
2018-10-03T10:08:44.218Z,7.90
2018-10-03T10:09:44.228Z,7.20
2018-10-03T10:10:44.188Z,7.20
2018-10-03T10:11:44.435Z,9.60
2018-10-03T10:12:44.160Z,7.90
2018-10-03T10:13:44.149Z,8.40
2018-10-03T10:14:44.163Z,7.60
2018-10-03T10:15:44.125Z,7.10
2018-10-03T10:16:44.121Z,9.60
2018-10-03T10:17:44.103Z,7.80
2018-10-03T10:18:44.129Z,9.30
2018-10-03T10:19:44.116Z,7.80
2018-10-03T10:20:44.092Z,6.90
2018-10-03T10:21:44.063Z,9.10
2018-10-03T10:22:44.045Z,8.80
2018-10-03T10:23:44.039Z,5.90
2018-10-03T10:24:44.072Z,6.10
2018-10-03T10:25:44.013Z,7.60
2018-10-03T10:26:44.003Z,10.20
2018-10-03T10:27:44.015Z,6.10
2018-10-03T10:28:43.996Z,5.40
2018-10-03T10:29:43.970Z,7.10
2018-10-03T10:30:43.973Z,9.60
2018-10-03T10:31:44.002Z,7.20
2018-10-03T10:32:44.055Z,6.60
2018-10-03T10:33:43.929Z,9.40
2018-10-03T10:34:43.922Z,5.90
2018-10-03T10:35:43.908Z,7.10
2018-10-03T10:36:43.888Z,6.60
2018-10-03T10:37:43.963Z,7.20
2018-10-03T10:38:43.873Z,5.30
2018-10-03T10:39:43.861Z,9.20
2018-10-03T10:40:44.118Z,9.10
2018-10-03T10:41:43.839Z,8.80
2018-10-03T10:42:43.859Z,7.40
2018-10-03T10:43:43.834Z,9.20
2018-10-03T10:44:43.801Z,6.70
2018-10-03T10:45:43.788Z,7.00
2018-10-03T10:46:43.848Z,9.30
2018-10-03T10:47:43.797Z,6.80
2018-10-03T10:48:43.753Z,7.80
2018-10-03T10:49:43.743Z,8.40
2018-10-03T10:50:43.731Z,7.70
2018-10-03T10:51:43.852Z,5.70
2018-10-03T10:52:43.740Z,8.30
2018-10-03T10:53:43.732Z,9.80
2018-10-03T10:54:43.685Z,5.30
2018-10-03T10:55:43.677Z,6.60
2018-10-03T10:56:43.669Z,6.60
2018-10-03T10:57:43.655Z,4.90
2018-10-03T10:58:43.666Z,7.10
2018-10-03T10:59:43.667Z,7.80
2018-10-03T11:00:43.626Z,7.20
2018-10-03T11:01:43.610Z,6.70
2018-10-03T11:02:43.604Z,8.80
2018-10-03T11:03:43.619Z,5.50
2018-10-03T11:04:43.573Z,7.90
2018-10-03T11:05:43.563Z,8.20
2018-10-03T11:06:43.685Z,8.20
2018-10-03T11:07:43.540Z,9.40
2018-10-03T11:08:43.552Z,7.80
2018-10-03T11:09:43.522Z,7.50
2018-10-03T11:10:43.508Z,7.80
2018-10-03T11:11:43.543Z,8.10
2018-10-03T11:12:43.499Z,6.00
2018-10-03T11:13:43.475Z,7.10
2018-10-03T11:14:43.464Z,8.80
2018-10-03T11:15:43.578Z,7.80
2018-10-03T11:16:43.468Z,7.30
2018-10-03T11:17:43.428Z,5.60
2018-10-03T11:18:43.422Z,8.70
2018-10-03T11:19:43.404Z,4.20
2018-10-03T11:20:43.416Z,7.40
2018-10-03T11:21:43.384Z,7.80
2018-10-03T11:22:43.371Z,8.00
2018-10-03T11:23:43.531Z,7.50
2018-10-03T11:24:43.513Z,6.60
2018-10-03T11:25:43.363Z,9.30
2018-10-03T11:26:43.336Z,5.20
2018-10-03T11:27:43.317Z,9.10
2018-10-03T11:28:43.306Z,6.70
2018-10-03T11:29:43.295Z,8.90
2018-10-03T11:30:43.311Z,5.60
2018-10-03T11:31:43.284Z,6.00
2018-10-03T11:32:43.281Z,8.60
2018-10-03T11:33:43.248Z,6.10
2018-10-03T11:34:43.235Z,5.10
2018-10-03T11:35:43.226Z,8.00
2018-10-03T11:36:43.216Z,6.90
2018-10-03T11:37:43.229Z,5.90
2018-10-03T11:38:43.193Z,6.10
2018-10-03T11:39:43.189Z,12.50
2018-10-03T11:40:43.168Z,7.00
2018-10-03T11:41:43.157Z,7.60
2018-10-03T11:42:52.986Z,6.80
2018-10-03T11:43:43.138Z,8.10
2018-10-03T11:44:43.148Z,6.70
2018-10-03T11:45:43.117Z,9.20
2018-10-03T11:46:43.099Z,8.00
2018-10-03T11:47:43.089Z,7.20
2018-10-03T11:48:43.080Z,8.40
2018-10-03T11:49:43.089Z,8.40
2018-10-03T11:50:43.141Z,5.70
2018-10-03T11:51:43.047Z,7.80
2018-10-03T11:52:43.036Z,8.20
2018-10-03T11:53:43.025Z,7.20
2018-10-03T11:54:43.032Z,11.90
2018-10-03T11:55:43.000Z,9.10
2018-10-03T11:56:43.030Z,7.30
2018-10-03T11:57:42.980Z,7.80
2018-10-03T11:58:42.964Z,8.90
2018-10-03T11:59:42.959Z,10.10
2018-10-03T12:00:42.940Z,7.50
2018-10-03T12:01:42.998Z,7.20
2018-10-03T12:02:42.989Z,10.10
2018-10-03T12:03:42.923Z,8.00
2018-10-03T12:04:42.903Z,6.50
2018-10-03T12:05:42.898Z,6.90
2018-10-03T12:06:42.896Z,7.40
2018-10-03T12:07:42.863Z,7.50
2018-10-03T12:08:42.854Z,9.10
2018-10-03T12:09:42.864Z,7.40
2018-10-03T12:10:42.853Z,6.40
2018-10-03T12:11:42.819Z,8.20
2018-10-03T12:12:42.845Z,7.40
2018-10-03T12:13:42.894Z,8.60
2018-10-03T12:14:42.796Z,7.60
2018-10-03T12:15:42.776Z,8.20
2018-10-03T12:16:42.768Z,7.20
2018-10-03T12:17:42.782Z,7.70
2018-10-03T12:18:42.745Z,5.70
2018-10-03T12:19:42.732Z,8.20
2018-10-03T12:20:42.719Z,6.50
2018-10-03T12:21:42.737Z,7.30
2018-10-03T12:22:42.698Z,6.50
2018-10-03T12:23:42.690Z,6.60
2018-10-03T12:24:42.698Z,8.50
2018-10-03T12:25:42.661Z,4.90
2018-10-03T12:26:42.649Z,6.60
2018-10-03T12:27:42.649Z,6.00
2018-10-03T12:28:42.627Z,5.40
2018-10-03T12:29:42.657Z,4.60
2018-10-03T12:30:42.610Z,6.30
2018-10-03T12:31:42.594Z,4.10
2018-10-03T12:32:42.586Z,5.10
2018-10-03T12:33:42.595Z,8.20
2018-10-03T12:34:42.593Z,6.00
2018-10-03T12:35:42.549Z,6.50
2018-10-03T12:36:42.538Z,7.10
2018-10-03T12:37:42.525Z,6.80
2018-10-03T12:38:42.516Z,8.00
2018-10-03T12:39:42.543Z,5.00
2018-10-03T12:40:42.490Z,3.90
2018-10-03T12:41:42.483Z,7.00
2018-10-03T12:42:42.489Z,7.70
2018-10-03T12:43:42.457Z,6.70
2018-10-03T12:44:42.472Z,5.90
2018-10-03T12:45:50.527Z,4.60
2018-10-03T12:46:42.423Z,7.00
2018-10-03T12:47:42.411Z,5.80
2018-10-03T12:48:42.400Z,7.60
2018-10-03T12:49:42.419Z,5.10
2018-10-03T12:50:42.379Z,4.30
2018-10-03T12:51:42.366Z,4.10
2018-10-03T12:52:42.354Z,7.50
2018-10-03T12:53:42.367Z,5.20
2018-10-03T12:54:42.407Z,5.20
2018-10-03T12:55:42.323Z,5.60
2018-10-03T12:56:42.312Z,4.50
2018-10-03T12:57:42.324Z,8.40
2018-10-03T12:58:42.289Z,6.70
2018-10-03T12:59:42.277Z,8.90
2018-10-03T13:00:42.297Z,8.80